Time;durP1;ratioP1;P1;durP2;ratioP2;P2;SDS_P1;SDS_P2;PMS_P1;PMS_P2;Temp;Humidity;BMP_temperature;BMP_pressure;BME280_temperature;BME280_humidity;BME280_pressure;Samples;Min_cycle;Max_cycle;Signal;HPM_P1;HPM_P2
2022/08/30 00:02:59;;;;;;;2.28;1.58;;;12.50;99.90;;;;;;5111036;27;20051;-47
2022/08/30 00:05:26;;;;;;;3.25;2.00;;;13.00;99.90;;;;;;5111029;27;20722;-45
2022/08/30 00:07:52;;;;;;;3.03;1.75;;;12.20;99.90;;;;;;5110187;27;20046;-44
2022/08/30 00:10:19;;;;;;;4.63;2.33;;;12.20;99.90;;;;;;5109810;27;20039;-47
2022/08/30 00:12:45;;;;;;;2.90;1.40;;;12.20;99.90;;;;;;5110991;27;20035;-48
2022/08/30 00:15:12;;;;;;;2.95;1.58;;;14.20;99.90;;;;;;5109718;27;20034;-45
2022/08/30 00:17:38;;;;;;;3.25;1.60;;;12.20;99.90;;;;;;5109691;27;20107;-47
2022/08/30 00:20:07;;;;;;;3.58;2.03;;;12.00;99.90;;;;;;5109536;27;20795;-46
2022/08/30 00:22:33;;;;;;;3.95;2.47;;;12.10;99.90;;;;;;5108563;27;20139;-46
2022/08/30 00:24:59;;;;;;;7.45;2.95;;;12.20;99.90;;;;;;5110124;27;20387;-45
2022/08/30 00:27:27;;;;;;;4.32;2.50;;;12.20;99.90;;;;;;5109683;27;20039;-47
2022/08/30 00:29:54;;;;;;;5.40;2.70;;;11.90;99.90;;;;;;5109489;27;20508;-46
2022/08/30 00:32:20;;;;;;;4.85;2.25;;;11.80;99.90;;;;;;5109058;27;20047;-47
2022/08/30 00:34:50;;;;;;;4.07;2.33;;;12.30;99.90;;;;;;5110006;27;20510;-48
2022/08/30 00:37:16;;;;;;;3.75;2.40;;;12.00;99.90;;;;;;5110468;27;20051;-45
2022/08/30 00:39:42;;;;;;;3.90;2.22;;;12.20;99.90;;;;;;5109570;27;20124;-52
2022/08/30 00:42:09;;;;;;;3.13;2.00;;;12.00;99.90;;;;;;5109899;27;20035;-47
2022/08/30 00:44:35;;;;;;;3.35;2.08;;;12.20;99.90;;;;;;5109203;27;20491;-50
2022/08/30 00:47:01;;;;;;;3.72;2.38;;;11.90;99.90;;;;;;5109594;27;20042;-47
2022/08/30 00:49:29;;;;;;;4.30;2.47;;;12.00;99.90;;;;;;5109555;27;20134;-46
2022/08/30 00:51:56;;;;;;;3.03;1.95;;;12.00;99.90;;;;;;5111032;27;20055;-46
2022/08/30 00:54:24;;;;;;;3.30;1.58;;;12.30;99.90;;;;;;5109358;27;20332;-49
2022/08/30 00:56:51;;;;;;;4.15;1.73;;;11.90;99.90;;;;;;5109823;27;20990;-43
2022/08/30 00:59:18;;;;;;;3.70;1.80;;;11.90;99.90;;;;;;5096838;27;20044;-50
2022/08/30 01:01:44;;;;;;;2.80;1.80;;;12.00;99.90;;;;;;5097016;27;20801;-45
2022/08/30 01:04:12;;;;;;;2.40;1.50;;;12.10;99.90;;;;;;5096229;27;20504;-46
2022/08/30 01:06:38;;;;;;;3.17;1.80;;;13.80;99.90;;;;;;5096151;27;20048;-49
2022/08/30 01:09:05;;;;;;;2.97;2.00;;;12.30;99.90;;;;;;5095572;27;20149;-47
2022/08/30 01:11:33;;;;;;;3.38;2.10;;;12.10;99.90;;;;;;5095979;27;20028;-46
2022/08/30 01:14:01;;;;;;;3.08;1.70;;;13.40;99.90;;;;;;5094664;27;20118;-48
2022/08/30 01:16:29;;;;;;;2.88;1.92;;;12.20;99.90;;;;;;5095490;28;20040;-49
2022/08/30 01:18:57;;;;;;;2.50;1.60;;;12.10;99.90;;;;;;5094547;27;20530;-47
2022/08/30 01:21:34;;;;;;;3.95;2.00;;;12.10;99.90;;;;;;5094459;28;20456;-47
2022/08/30 01:24:00;;;;;;;3.08;1.90;;;12.10;99.90;;;;;;5096407;27;20531;-45
2022/08/30 01:26:28;;;;;;;4.38;1.90;;;12.10;99.90;;;;;;5094934;27;20043;-49
2022/08/30 01:28:58;;;;;;;3.55;2.30;;;13.00;99.90;;;;;;5094856;27;20696;-44
2022/08/30 01:31:24;;;;;;;3.88;2.38;;;12.20;99.90;;;;;;5094308;28;20561;-44
2022/08/30 01:33:50;;;;;;;4.35;2.38;;;12.30;99.90;;;;;;5095089;27;20241;-48
2022/08/30 01:36:18;;;;;;;5.93;2.85;;;13.10;99.90;;;;;;5095548;27;20308;-48
2022/08/30 01:38:52;;;;;;;4.38;2.75;;;13.10;99.90;;;;;;5094660;27;20063;-46
2022/08/30 01:41:20;;;;;;;5.00;2.78;;;12.50;99.90;;;;;;5093455;28;20043;-48
2022/08/30 01:43:47;;;;;;;3.85;2.50;;;12.40;99.90;;;;;;5094033;28;20046;-46
2022/08/30 01:46:15;;;;;;;6.38;3.08;;;12.20;99.90;;;;;;5094011;27;20052;-49
2022/08/30 01:48:41;;;;;;;7.25;2.90;;;12.10;99.90;;;;;;5094512;27;20543;-48
2022/08/30 01:51:11;;;;;;;6.15;3.17;;;12.30;99.90;;;;;;5094151;28;20043;-48
2022/08/30 01:53:38;;;;;;;5.28;3.30;;;12.30;99.90;;;;;;5094461;27;20047;-45
2022/08/30 01:56:04;;;;;;;5.50;2.90;;;14.30;99.90;;;;;;5094635;27;20039;-44
2022/08/30 01:58:30;;;;;;;5.43;3.70;;;12.10;99.90;;;;;;5094271;27;20051;-47
2022/08/30 02:00:56;;;;;;;4.30;3.13;;;12.50;99.90;;;;;;5095220;27;20052;-46
2022/08/30 02:03:23;;;;;;;5.00;3.72;;;12.30;99.90;;;;;;5095104;27;20101;-47
2022/08/30 02:05:49;;;;;;;5.10;3.30;;;12.40;99.90;;;;;;5094412;27;20050;-49
2022/08/30 02:08:15;;;;;;;7.03;3.88;;;12.20;99.90;;;;;;5090516;27;20453;-49
2022/08/30 02:10:40;;;;;;;9.77;4.30;;;12.30;99.90;;;;;;5094283;27;20038;-43
2022/08/30 02:13:06;;;;;;;7.57;4.68;;;13.10;99.90;;;;;;5094765;27;20448;-47
2022/08/30 02:15:34;;;;;;;6.55;4.50;;;12.60;99.90;;;;;;5094847;27;20152;-48
2022/08/30 02:17:59;;;;;;;8.82;4.57;;;12.10;99.90;;;;;;5095622;27;20046;-44
2022/08/30 02:20:25;;;;;;;5.50;4.30;;;12.40;99.90;;;;;;5094200;27;20040;-48
2022/08/30 02:22:51;;;;;;;5.90;4.47;;;12.40;99.90;;;;;;5093838;27;20040;-48
2022/08/30 02:25:17;;;;;;;10.88;4.82;;;12.50;99.90;;;;;;5094607;27;20043;-45
2022/08/30 02:27:42;;;;;;;7.20;4.72;;;12.60;99.90;;;;;;5093228;27;20048;-50
2022/08/30 02:30:09;;;;;;;8.25;5.45;;;13.10;99.90;;;;;;5093336;27;20043;-47
2022/08/30 02:32:35;;;;;;;6.85;4.80;;;12.50;99.90;;;;;;5093776;27;21876;-45
2022/08/30 02:35:01;;;;;;;8.20;4.38;;;10.50;99.90;;;;;;5095881;27;20609;-46
2022/08/30 02:37:26;;;;;;;7.90;4.28;;;12.70;99.90;;;;;;5094251;27;20542;-45
2022/08/30 02:39:52;;;;;;;8.77;5.40;;;12.60;99.90;;;;;;5093013;27;20530;-45
2022/08/30 02:42:18;;;;;;;11.07;6.95;;;12.80;99.90;;;;;;5094079;28;20043;-45
2022/08/30 02:44:43;;;;;;;10.05;6.40;;;12.60;99.90;;;;;;5093582;28;20035;-46
2022/08/30 02:47:09;;;;;;;11.65;5.63;;;12.90;99.90;;;;;;5092520;28;20075;-46
2022/08/30 02:49:35;;;;;;;9.75;5.65;;;13.00;99.90;;;;;;5091031;27;20050;-48
2022/08/30 02:52:03;;;;;;;11.32;6.25;;;13.10;99.90;;;;;;5093610;27;20154;-45
2022/08/30 02:54:31;;;;;;;8.07;5.13;;;13.00;99.90;;;;;;5095360;27;20054;-46
2022/08/30 02:56:59;;;;;;;7.40;5.00;;;13.20;99.90;;;;;;5094105;27;20039;-44
2022/08/30 02:59:25;;;;;;;8.90;4.72;;;13.00;99.90;;;;;;5092779;27;20058;-47
2022/08/30 03:01:51;;;;;;;8.88;5.97;;;13.10;99.90;;;;;;5092834;28;20032;-47
2022/08/30 03:04:17;;;;;;;8.50;5.35;;;13.10;99.90;;;;;;5094254;28;20038;-48
2022/08/30 03:06:43;;;;;;;6.95;4.68;;;12.90;99.90;;;;;;5094424;28;20042;-48
2022/08/30 03:09:09;;;;;;;9.18;5.38;;;12.90;99.90;;;;;;5093331;28;20653;-45
2022/08/30 03:11:35;;;;;;;10.73;5.00;;;13.20;99.90;;;;;;5092103;27;20050;-47
2022/08/30 03:14:00;;;;;;;7.18;4.50;;;12.80;99.90;;;;;;5093140;28;20400;-45
2022/08/30 03:16:26;;;;;;;6.35;4.40;;;13.00;99.90;;;;;;5094369;28;20126;-44
2022/08/30 03:18:52;;;;;;;7.03;5.00;;;12.80;99.90;;;;;;5093813;27;20044;-46
2022/08/30 03:21:17;;;;;;;5.68;4.07;;;12.80;99.90;;;;;;5093198;28;20563;-45
2022/08/30 03:23:43;;;;;;;8.32;4.63;;;12.60;99.90;;;;;;5092346;28;20035;-46
2022/08/30 03:26:13;;;;;;;5.13;3.50;;;12.50;99.90;;;;;;5093790;27;20261;-48
2022/08/30 03:28:41;;;;;;;5.82;3.17;;;12.60;99.90;;;;;;5093615;27;20092;-47
2022/08/30 03:31:07;;;;;;;4.85;3.15;;;12.40;99.90;;;;;;5092233;28;20105;-47
2022/08/30 03:33:33;;;;;;;3.90;2.60;;;12.30;99.90;;;;;;5093189;27;20075;-47
2022/08/30 03:35:59;;;;;;;6.47;3.05;;;13.50;99.90;;;;;;5093758;28;20032;-45
2022/08/30 03:38:25;;;;;;;4.22;2.72;;;12.30;99.90;;;;;;5092978;28;20078;-45
2022/08/30 03:40:50;;;;;;;6.75;2.80;;;12.10;99.90;;;;;;5092181;28;20075;-47
2022/08/30 03:43:16;;;;;;;4.65;3.00;;;12.20;99.90;;;;;;5092293;28;20707;-48
2022/08/30 03:45:43;;;;;;;4.28;2.35;;;12.80;99.90;;;;;;5092221;28;20061;-46
2022/08/30 03:48:09;;;;;;;3.22;2.30;;;13.10;99.90;;;;;;5092152;28;20411;-47
2022/08/30 03:50:35;;;;;;;4.80;3.30;;;11.90;99.90;;;;;;5092852;28;20047;-47
2022/08/30 03:53:01;;;;;;;5.53;2.72;;;11.90;99.90;;;;;;5092837;28;20707;-47
2022/08/30 03:55:29;;;;;;;4.80;2.90;;;11.70;99.90;;;;;;5093459;28;20035;-44
2022/08/30 03:57:55;;;;;;;6.78;3.70;;;11.90;99.90;;;;;;5092657;27;20167;-44
2022/08/30 04:00:22;;;;;;;5.15;3.25;;;12.80;99.90;;;;;;5092868;28;20048;-48
2022/08/30 04:02:47;;;;;;;4.60;3.08;;;11.80;99.90;;;;;;5092141;28;20108;-46
2022/08/30 04:05:13;;;;;;;5.95;3.65;;;11.80;99.90;;;;;;5093345;28;20031;-45
2022/08/30 04:07:39;;;;;;;10.10;5.10;;;11.80;99.90;;;;;;5092896;28;20133;-46
2022/08/30 04:10:06;;;;;;;5.82;3.85;;;12.80;99.90;;;;;;5092933;28;20126;-45
2022/08/30 04:12:32;;;;;;;4.80;3.33;;;11.90;99.90;;;;;;5092180;28;20257;-45
2022/08/30 04:14:58;;;;;;;6.63;3.38;;;11.80;99.90;;;;;;5092769;28;20058;-46
2022/08/30 04:17:23;;;;;;;6.78;3.88;;;11.70;99.90;;;;;;5092644;28;20042;-48
2022/08/30 04:19:49;;;;;;;5.47;3.50;;;11.60;99.90;;;;;;5093973;28;20055;-47
2022/08/30 04:22:16;;;;;;;5.38;3.25;;;11.80;99.90;;;;;;5093226;28;20043;-48
2022/08/30 04:24:42;;;;;;;7.03;3.38;;;11.80;99.90;;;;;;5092183;28;20123;-45
2022/08/30 04:27:08;;;;;;;9.52;3.58;;;11.60;99.90;;;;;;5092303;28;20142;-45
2022/08/30 04:29:34;;;;;;;6.28;3.15;;;11.70;99.90;;;;;;5093558;28;20146;-46
2022/08/30 04:32:00;;;;;;;7.80;3.55;;;11.60;99.90;;;;;;5093234;27;20050;-47
2022/08/30 04:34:26;;;;;;;6.00;3.88;;;12.60;99.90;;;;;;5096883;27;20045;-47
2022/08/30 04:36:52;;;;;;;4.80;3.03;;;11.70;99.90;;;;;;5097631;27;20130;-49
2022/08/30 04:39:18;;;;;;;5.72;3.03;;;12.40;99.90;;;;;;5096674;27;20610;-47
2022/08/30 04:41:44;;;;;;;7.80;3.90;;;11.50;99.90;;;;;;5095829;27;20127;-46
2022/08/30 04:44:10;;;;;;;6.57;4.55;;;11.40;99.90;;;;;;5095700;28;20402;-43
2022/08/30 04:46:36;;;;;;;5.88;4.35;;;12.70;99.90;;;;;;5095036;27;20051;-48
2022/08/30 04:49:04;;;;;;;5.45;4.00;;;11.50;99.90;;;;;;5094575;27;20082;-47
2022/08/30 04:51:30;;;;;;;5.30;3.55;;;11.60;99.90;;;;;;5095360;27;20039;-49
2022/08/30 04:53:55;;;;;;;5.82;3.50;;;12.20;99.90;;;;;;5096465;27;20036;-47
2022/08/30 04:56:23;;;;;;;5.40;2.95;;;11.90;99.90;;;;;;5094890;27;20050;-45
2022/08/30 04:58:52;;;;;;;8.77;4.38;;;11.50;99.90;;;;;;5094751;27;20032;-46
2022/08/30 05:01:22;;;;;;;7.72;3.75;;;12.50;99.90;;;;;;5094461;28;20781;-47
2022/08/30 05:03:48;;;;;;;6.20;3.53;;;11.40;99.90;;;;;;5072828;27;20104;-45
2022/08/30 05:06:14;;;;;;;5.97;3.08;;;11.60;99.90;;;;;;5095632;27;20134;-45
2022/08/30 05:08:40;;;;;;;7.93;3.58;;;11.60;99.90;;;;;;5096338;27;20060;-47
2022/08/30 05:11:06;;;;;;;7.45;3.72;;;11.70;99.90;;;;;;5094915;27;20194;-47
2022/08/30 05:13:33;;;;;;;8.65;3.60;;;11.50;99.90;;;;;;5094569;27;20042;-48
2022/08/30 05:15:59;;;;;;;6.65;2.95;;;11.30;99.90;;;;;;5094756;28;20130;-50
2022/08/30 05:18:25;;;;;;;6.50;3.38;;;11.40;99.90;;;;;;5095097;27;20059;-49
2022/08/30 05:21:03;;;;;;;6.95;3.38;;;11.40;99.90;;;;;;5093765;27;20088;-46
2022/08/30 05:23:28;;;;;;;3.13;2.20;;;11.50;99.90;;;;;;5094810;27;20074;-47
2022/08/30 05:25:54;;;;;;;4.95;2.60;;;11.60;99.90;;;;;;5093233;27;20130;-47
2022/08/30 05:28:20;;;;;;;5.95;3.28;;;11.60;99.90;;;;;;5094629;27;20078;-50
2022/08/30 05:30:46;;;;;;;10.50;3.50;;;11.80;99.90;;;;;;5093714;27;20044;-50
2022/08/30 05:33:11;;;;;;;6.40;3.58;;;12.70;99.90;;;;;;5094543;27;20123;-45
2022/08/30 05:35:37;;;;;;;6.30;2.95;;;13.80;99.90;;;;;;5095168;27;20126;-50
2022/08/30 05:38:03;;;;;;;8.25;3.63;;;11.90;99.90;;;;;;5095139;27;20036;-44
2022/08/30 05:40:29;;;;;;;9.63;4.53;;;11.80;99.90;;;;;;5095336;27;20036;-48
2022/08/30 05:42:54;;;;;;;8.82;5.10;;;11.90;99.90;;;;;;5094636;28;20722;-45
2022/08/30 05:45:20;;;;;;;10.55;6.00;;;12.20;99.90;;;;;;5093986;28;20046;-45
2022/08/30 05:47:46;;;;;;;7.35;4.00;;;12.30;99.90;;;;;;5093836;28;20067;-47
2022/08/30 05:50:13;;;;;;;8.65;6.70;;;12.40;99.90;;;;;;5094116;27;20134;-46
2022/08/30 05:52:40;;;;;;;12.18;7.10;;;12.50;99.90;;;;;;5095931;27;20144;-48
2022/08/30 05:55:07;;;;;;;11.27;6.55;;;12.70;99.90;;;;;;5094797;27;20396;-48
2022/08/30 05:57:39;;;;;;;14.88;7.00;;;12.80;99.90;;;;;;5094146;27;20070;-50
2022/08/30 06:00:09;;;;;;;14.73;6.38;;;13.20;99.90;;;;;;5093956;27;20284;-47
2022/08/30 06:02:35;;;;;;;9.55;5.95;;;14.30;99.90;;;;;;5093694;28;20043;-48
2022/08/30 06:05:03;;;;;;;17.65;6.22;;;13.60;99.90;;;;;;5095211;27;20027;-49
2022/08/30 06:07:29;;;;;;;8.43;5.47;;;13.60;99.90;;;;;;5095109;27;20071;-46
2022/08/30 06:09:54;;;;;;;11.90;6.32;;;15.40;99.90;;;;;;5094132;27;20087;-49
2022/08/30 06:12:20;;;;;;;10.90;5.35;;;14.10;99.90;;;;;;5094270;28;20407;-46
2022/08/30 06:14:46;;;;;;;8.57;5.00;;;14.50;99.90;;;;;;5093734;27;20031;-48
2022/08/30 06:17:12;;;;;;;7.57;4.47;;;15.30;99.90;;;;;;5094479;28;20054;-46
2022/08/30 06:19:38;;;;;;;7.40;3.60;;;16.60;99.90;;;;;;5094399;28;20036;-48
2022/08/30 06:22:04;;;;;;;10.02;3.90;;;17.70;99.90;;;;;;5093723;28;20476;-47
2022/08/30 06:24:29;;;;;;;7.07;3.90;;;19.00;99.90;;;;;;5094401;27;20036;-45
2022/08/30 06:26:55;;;;;;;5.65;3.42;;;20.00;99.90;;;;;;5094578;27;20079;-46
2022/08/30 06:29:21;;;;;;;11.75;3.35;;;21.10;99.90;;;;;;5094267;27;20063;-48
2022/08/30 06:31:47;;;;;;;8.90;3.28;;;21.90;99.90;;;;;;5093463;27;20376;-48
2022/08/30 06:34:14;;;;;;;7.38;3.17;;;21.90;99.90;;;;;;5094005;27;20357;-49
2022/08/30 06:36:41;;;;;;;9.65;2.67;;;20.70;99.90;;;;;;5094763;27;20051;-48
2022/08/30 06:39:08;;;;;;;9.55;2.65;;;23.20;99.90;;;;;;5094778;27;20134;-45
2022/08/30 06:41:36;;;;;;;12.57;3.30;;;23.40;99.90;;;;;;5094572;27;20069;-48
2022/08/30 06:44:04;;;;;;;9.30;3.05;;;23.10;99.90;;;;;;5094478;28;20126;-49
2022/08/30 06:46:33;;;;;;;4.70;2.47;;;23.70;99.90;;;;;;5093458;27;20070;-49
2022/08/30 06:49:00;;;;;;;6.90;2.65;;;23.90;99.90;;;;;;5093740;27;20048;-48
2022/08/30 06:51:29;;;;;;;8.60;2.40;;;24.40;99.90;;;;;;5095016;27;20044;-49
2022/08/30 06:53:55;;;;;;;9.02;3.28;;;24.50;99.90;;;;;;5094448;28;20158;-48
2022/08/30 06:56:21;;;;;;;6.07;2.15;;;25.30;99.90;;;;;;5093461;27;20388;-49
2022/08/30 06:58:48;;;;;;;6.05;2.00;;;25.50;99.90;;;;;;5094169;28;20040;-50
2022/08/30 07:01:18;;;;;;;6.95;2.60;;;25.40;99.90;;;;;;5091448;28;20467;-49
2022/08/30 07:03:44;;;;;;;7.05;2.40;;;25.70;99.90;;;;;;5093027;27;20047;-49
2022/08/30 07:06:10;;;;;;;10.65;2.50;;;26.10;99.90;;;;;;5094755;28;20043;-48
2022/08/30 07:08:36;;;;;;;6.07;2.35;;;26.90;99.90;;;;;;5094533;27;20114;-50
2022/08/30 07:11:04;;;;;;;6.20;2.20;;;27.20;99.90;;;;;;5093311;27;20118;-49
2022/08/30 07:13:30;;;;;;;7.35;2.20;;;27.10;99.90;;;;;;5093027;28;20039;-54
2022/08/30 07:15:56;;;;;;;5.30;2.15;;;27.60;99.90;;;;;;5091406;28;20055;-49
2022/08/30 07:21:14;;;;;;;7.20;1.95;;;27.50;99.90;;;;;;5093360;28;20044;-46
2022/08/30 07:23:40;;;;;;;5.63;2.05;;;27.20;99.90;;;;;;5092466;28;20519;-49
2022/08/30 07:26:09;;;;;;;6.82;2.00;;;26.80;99.90;;;;;;5093335;27;20087;-48
2022/08/30 07:28:40;;;;;;;4.45;1.83;;;26.40;99.90;;;;;;5092217;28;20043;-49
2022/08/30 07:31:06;;;;;;;7.50;2.05;;;25.00;99.90;;;;;;5092785;28;20044;-48
2022/08/30 07:33:32;;;;;;;4.10;1.40;;;24.60;99.90;;;;;;5092999;27;20046;-46
2022/08/30 07:35:58;;;;;;;6.22;1.45;;;24.20;99.90;;;;;;5093167;28;20405;-46
2022/08/30 07:38:25;;;;;;;4.80;1.40;;;23.70;99.90;;;;;;5093724;27;20543;-47
2022/08/30 07:40:51;;;;;;;3.65;1.02;;;23.00;99.90;;;;;;5092314;28;20074;-46
2022/08/30 07:43:17;;;;;;;4.95;1.70;;;23.00;99.90;;;;;;5092801;28;20636;-47
2022/08/30 07:45:43;;;;;;;3.30;1.30;;;22.50;99.90;;;;;;5093287;28;20032;-46
2022/08/30 07:48:10;;;;;;;5.03;1.20;;;22.60;99.90;;;;;;5092626;28;20040;-46
2022/08/30 07:50:36;;;;;;;6.32;1.70;;;22.40;99.90;;;;;;5094693;28;20051;-48
2022/08/30 07:53:02;;;;;;;5.82;1.70;;;22.00;99.90;;;;;;5094511;28;20138;-46
2022/08/30 07:55:28;;;;;;;4.20;1.20;;;21.60;99.90;;;;;;5092830;28;20042;-50
2022/08/30 07:57:54;;;;;;;4.32;1.40;;;21.60;99.90;;;;;;5094416;28;20082;-48
2022/08/30 08:00:19;;;;;;;9.20;1.52;;;21.60;99.90;;;;;;5093481;28;20093;-46
2022/08/30 08:02:45;;;;;;;4.18;1.30;;;21.60;99.90;;;;;;5093261;28;20044;-45
2022/08/30 08:05:13;;;;;;;3.80;1.15;;;21.30;99.90;;;;;;5093817;28;20039;-45
2022/08/30 08:07:39;;;;;;;5.50;1.30;;;21.10;99.90;;;;;;5093618;28;20126;-44
2022/08/30 08:10:05;;;;;;;4.93;1.30;;;21.30;99.90;;;;;;5098108;27;20377;-49
2022/08/30 08:12:31;;;;;;;2.88;1.08;;;21.60;99.90;;;;;;5098178;27;20571;-46
2022/08/30 08:14:57;;;;;;;2.85;1.23;;;21.50;99.90;;;;;;5097028;27;20050;-49
2022/08/30 08:17:23;;;;;;;2.42;1.02;;;21.20;99.90;;;;;;5096918;27;24783;-44
2022/08/30 08:19:49;;;;;;;3.10;1.20;;;20.60;99.90;;;;;;5097325;28;20089;-46
2022/08/30 08:22:14;;;;;;;6.80;1.92;;;20.60;99.90;;;;;;5096692;27;20039;-46
2022/08/30 08:24:40;;;;;;;3.00;1.10;;;20.50;99.90;;;;;;5096165;28;20555;-44
2022/08/30 08:27:06;;;;;;;5.85;1.30;;;20.40;99.90;;;;;;5096412;27;20220;-45
2022/08/30 08:29:31;;;;;;;4.40;1.38;;;20.20;99.90;;;;;;5093438;27;20460;-46
2022/08/30 08:31:58;;;;;;;6.25;1.25;;;20.00;99.90;;;;;;5096346;28;20048;-45
2022/08/30 08:34:25;;;;;;;4.80;1.20;;;19.90;99.90;;;;;;5097281;27;20043;-46
2022/08/30 08:36:51;;;;;;;7.97;1.48;;;19.60;99.90;;;;;;5098008;27;20073;-45
2022/08/30 08:39:17;;;;;;;3.67;1.10;;;19.70;99.90;;;;;;5079400;28;20046;-46
2022/08/30 08:42:13;;;;;;;3.78;1.30;;;19.50;99.90;;;;;;5097403;27;20039;-49
2022/08/30 08:44:49;;;;;;;3.97;1.27;;;19.50;99.90;;;;;;5079089;27;20582;-48
2022/08/30 08:47:16;;;;;;;2.83;1.05;;;19.70;99.90;;;;;;5095374;28;20531;-47
2022/08/30 08:49:46;;;;;;;4.70;1.42;;;19.50;99.90;;;;;;5095761;28;20606;-45
2022/08/30 08:55:12;;;;;;;5.90;1.45;;;20.00;99.90;;;;;;5096184;27;20116;-48
2022/08/30 08:57:39;;;;;;;3.67;1.20;;;19.80;99.90;;;;;;5096897;28;20039;-46
2022/08/30 09:00:07;;;;;;;5.30;1.25;;;19.70;99.90;;;;;;5096331;28;20039;-47
2022/08/30 09:02:38;;;;;;;3.92;1.23;;;19.80;99.90;;;;;;5096230;27;20054;-45
2022/08/30 09:05:05;;;;;;;4.95;1.27;;;19.70;99.90;;;;;;5096043;27;20051;-46
2022/08/30 09:07:36;;;;;;;4.47;0.98;;;19.70;99.90;;;;;;5097372;27;20051;-44
2022/08/30 09:10:03;;;;;;;3.30;1.33;;;19.60;99.90;;;;;;5097902;27;20658;-48
2022/08/30 09:12:29;;;;;;;6.15;1.40;;;19.70;99.90;;;;;;5096386;28;20032;-44
2022/08/30 09:15:07;;;;;;;4.60;1.10;;;19.50;99.90;;;;;;5096455;27;20066;-45
2022/08/30 09:17:54;;;;;;;4.80;1.30;;;19.80;99.90;;;;;;5096445;27;20061;-44
2022/08/30 09:20:27;;;;;;;4.05;1.10;;;19.60;99.90;;;;;;5096274;27;20423;-44
2022/08/30 09:22:53;;;;;;;6.93;1.48;;;19.70;99.90;;;;;;5096623;27;20036;-49
2022/08/30 09:25:27;;;;;;;5.38;1.77;;;19.80;99.90;;;;;;5095981;27;20043;-48
2022/08/30 09:28:06;;;;;;;5.13;1.50;;;19.60;99.90;;;;;;5095979;27;20586;-41
2022/08/30 09:30:32;;;;;;;4.22;1.38;;;19.40;99.90;;;;;;5095452;27;20127;-39
2022/08/30 09:33:01;;;;;;;3.17;1.20;;;19.30;99.90;;;;;;5095407;27;20054;-39
2022/08/30 09:35:38;;;;;;;4.88;1.20;;;19.70;99.90;;;;;;5095418;27;20449;-41
2022/08/30 09:38:20;;;;;;;4.95;1.20;;;20.20;99.90;;;;;;5095545;27;20051;-41
2022/08/30 09:40:52;;;;;;;6.53;1.75;;;20.70;99.90;;;;;;5095379;27;20051;-42
2022/08/30 09:43:29;;;;;;;8.18;1.25;;;20.50;99.90;;;;;;5095021;27;20035;-43
2022/08/30 09:45:58;;;;;;;4.15;1.40;;;20.40;99.90;;;;;;5095621;27;20124;-41
2022/08/30 09:48:35;;;;;;;3.58;1.30;;;20.60;99.90;;;;;;5095421;27;20470;-40
2022/08/30 09:51:10;;;;;;;3.33;1.33;;;20.60;99.90;;;;;;5094453;27;20067;-40
2022/08/30 09:53:50;;;;;;;3.58;1.30;;;20.70;99.90;;;;;;5094535;27;20040;-40
2022/08/30 09:56:53;;;;;;;4.13;1.50;;;20.70;99.90;;;;;;5094958;27;21224;-45
2022/08/30 09:59:38;;;;;;;4.88;1.15;;;20.60;99.90;;;;;;5096960;27;20134;-43
2022/08/30 10:02:36;;;;;;;9.70;2.17;;;20.50;99.90;;;;;;5095980;27;20051;-42
2022/08/30 10:05:20;;;;;;;2.58;1.00;;;20.50;99.90;;;;;;5078171;27;20044;-45
2022/08/30 10:08:18;;;;;;;5.28;1.30;;;20.60;99.90;;;;;;5095553;27;20162;-45
2022/08/30 10:10:59;;;;;;;6.22;1.50;;;21.00;99.90;;;;;;5094530;28;20263;-43
2022/08/30 10:13:44;;;;;;;5.47;1.20;;;21.20;99.90;;;;;;5095778;28;20405;-44
2022/08/30 10:16:13;;;;;;;3.35;1.20;;;21.00;99.90;;;;;;5094511;27;20069;-45
2022/08/30 10:19:04;;;;;;;4.40;1.35;;;20.80;99.90;;;;;;5094806;27;20035;-41
2022/08/30 10:21:41;;;;;;;3.28;1.10;;;20.30;99.90;;;;;;5094686;28;20412;-43
2022/08/30 10:24:11;;;;;;;11.68;1.77;;;20.70;99.90;;;;;;5094151;27;20435;-44
2022/08/30 10:26:55;;;;;;;3.45;1.08;;;20.90;99.90;;;;;;5094357;27;20322;-43
2022/08/30 10:29:40;;;;;;;4.22;1.15;;;20.90;99.90;;;;;;5094139;27;20040;-42
2022/08/30 10:32:16;;;;;;;3.63;1.20;;;19.00;99.90;;;;;;5094236;27;20042;-45
2022/08/30 10:34:51;;;;;;;2.50;1.08;;;21.40;99.90;;;;;;5094561;27;20224;-42
2022/08/30 10:37:22;;;;;;;2.75;0.90;;;21.00;99.90;;;;;;5093691;27;20040;-43
2022/08/30 10:41:11;;;;;;;2.92;1.10;;;21.40;99.90;;;;;;5094271;27;20437;-46
2022/08/30 10:42:51;;;;;;;3.25;0.90;;;21.60;99.90;;;;;;5094285;27;20083;-43
2022/08/30 10:45:17;;;;;;;2.40;0.95;;;21.50;99.90;;;;;;5094492;27;20057;-42
2022/08/30 10:48:03;;;;;;;3.05;1.48;;;21.60;99.90;;;;;;5093908;27;20105;-41
2022/08/30 10:50:34;;;;;;;3.00;1.02;;;21.80;99.90;;;;;;5094678;27;20112;-41
2022/08/30 10:53:10;;;;;;;1.83;0.88;;;21.60;99.90;;;;;;5094879;27;20099;-42
2022/08/30 10:55:47;;;;;;;2.83;1.05;;;21.80;99.90;;;;;;5092968;27;20067;-41
2022/08/30 10:58:15;;;;;;;2.78;1.00;;;21.60;99.90;;;;;;5093825;27;20451;-40
2022/08/30 11:00:52;;;;;;;5.20;1.10;;;22.00;99.90;;;;;;5093736;28;20039;-45
2022/08/30 11:03:54;;;;;;;3.67;1.20;;;21.90;99.90;;;;;;5092232;28;20039;-42
2022/08/30 11:06:41;;;;;;;3.25;0.90;;;22.00;99.90;;;;;;5070257;27;20473;-41
2022/08/30 11:09:22;;;;;;;3.78;1.10;;;22.30;99.90;;;;;;5094813;27;20070;-44
2022/08/30 11:12:15;;;;;;;2.17;1.00;;;22.30;99.90;;;;;;5092664;28;20458;-42
2022/08/30 11:14:43;;;;;;;4.88;1.52;;;22.30;99.90;;;;;;5093302;27;20043;-41
2022/08/30 11:17:34;;;;;;;3.78;1.20;;;22.60;99.90;;;;;;5091996;27;20047;-43
2022/08/30 11:20:02;;;;;;;3.58;1.13;;;22.10;99.90;;;;;;5093278;28;20035;-43
2022/08/30 11:22:35;;;;;;;9.10;1.27;;;22.10;99.90;;;;;;5093762;28;20039;-42
2022/08/30 11:25:10;;;;;;;2.80;1.02;;;22.10;99.90;;;;;;5093246;27;20036;-44
2022/08/30 11:27:50;;;;;;;4.13;1.10;;;22.10;99.90;;;;;;5093397;28;20039;-45
2022/08/30 11:30:24;;;;;;;5.20;1.52;;;21.90;99.90;;;;;;5093963;27;20050;-42
2022/08/30 11:33:03;;;;;;;2.30;0.80;;;22.40;99.90;;;;;;5093947;28;21165;-42
2022/08/30 11:35:41;;;;;;;2.67;0.90;;;22.50;99.90;;;;;;5091691;27;20085;-44
2022/08/30 11:38:25;;;;;;;3.85;1.02;;;22.60;99.90;;;;;;5094128;28;20040;-42
2022/08/30 11:40:54;;;;;;;3.95;1.17;;;22.40;99.90;;;;;;5092868;28;20043;-42
2022/08/30 11:44:11;;;;;;;2.20;1.00;;;21.90;99.90;;;;;;5091732;28;20612;-41
2022/08/30 11:46:39;;;;;;;4.40;1.10;;;22.00;99.90;;;;;;5048877;28;20540;-43
2022/08/30 11:49:05;;;;;;;2.70;0.90;;;22.10;99.90;;;;;;5090220;28;20536;-41
2022/08/30 11:51:49;;;;;;;3.50;1.02;;;22.40;99.90;;;;;;5092481;28;20047;-41
2022/08/30 11:54:42;;;;;;;4.50;1.00;;;22.50;99.90;;;;;;5093804;28;20040;-41
2022/08/30 11:57:20;;;;;;;3.53;0.90;;;22.70;99.90;;;;;;5092144;28;20126;-44
2022/08/30 12:00:07;;;;;;;2.83;0.88;;;22.50;99.90;;;;;;5092550;28;20043;-43
2022/08/30 12:02:54;;;;;;;4.20;1.52;;;22.80;99.90;;;;;;5092103;28;20504;-41
2022/08/30 12:05:41;;;;;;;3.63;1.00;;;22.70;99.90;;;;;;5092118;28;20035;-43
2022/08/30 12:08:19;;;;;;;3.15;0.98;;;23.00;99.90;;;;;;5091496;28;20412;-40
2022/08/30 12:10:54;;;;;;;2.75;1.25;;;22.80;99.90;;;;;;5093120;28;20066;-42
2022/08/30 12:13:37;;;;;;;4.68;1.10;;;22.70;99.90;;;;;;5092673;28;20055;-40
2022/08/30 12:16:05;;;;;;;6.15;1.52;;;22.80;99.90;;;;;;5092224;28;20125;-40
2022/08/30 12:18:58;;;;;;;3.75;0.93;;;23.00;99.90;;;;;;5092236;28;20048;-44
2022/08/30 12:21:34;;;;;;;6.07;1.45;;;22.60;99.90;;;;;;5092394;28;20558;-45
2022/08/30 12:24:19;;;;;;;12.48;2.22;;;22.90;99.90;;;;;;5093383;28;20102;-42
2022/08/30 12:26:47;;;;;;;4.65;1.17;;;22.70;99.90;;;;;;5091610;28;20675;-42
2022/08/30 12:29:29;;;;;;;5.65;1.48;;;22.80;99.90;;;;;;5092099;28;20051;-43
2022/08/30 12:32:06;;;;;;;6.40;1.45;;;22.70;99.90;;;;;;5092066;28;21104;-43
2022/08/30 12:34:44;;;;;;;4.13;1.15;;;22.70;99.90;;;;;;5092337;28;20112;-42
2022/08/30 12:37:19;;;;;;;7.13;1.40;;;22.40;99.90;;;;;;5093735;28;20054;-42
2022/08/30 12:39:45;;;;;;;7.30;1.40;;;22.40;99.90;;;;;;5092573;28;20043;-44
2022/08/30 12:42:22;;;;;;;9.20;1.75;;;22.10;99.90;;;;;;5092802;28;20066;-45
2022/08/30 12:44:53;;;;;;;4.10;1.17;;;22.10;99.90;;;;;;5092631;28;20104;-40
2022/08/30 12:47:25;;;;;;;;;;;22.10;99.90;;;;;;5092157;28;20365;-44
2022/08/30 12:49:52;;;;;;;4.00;1.25;;;22.10;99.90;;;;;;5092895;28;19934;-41
2022/08/30 12:52:30;;;;;;;4.20;1.15;;;22.60;99.90;;;;;;5091402;28;20519;-40
2022/08/30 12:55:13;;;;;;;3.90;1.30;;;22.60;99.90;;;;;;5095175;27;20399;-43
2022/08/30 12:57:42;;;;;;;3.85;1.10;;;22.70;99.90;;;;;;5095751;28;20067;-40
2022/08/30 13:00:26;;;;;;;3.85;1.20;;;22.70;99.90;;;;;;5095746;28;20035;-42
2022/08/30 13:02:55;;;;;;;3.47;1.00;;;22.80;99.90;;;;;;5095487;27;20215;-42
2022/08/30 13:05:45;;;;;;;3.30;1.00;;;22.70;99.90;;;;;;5095248;27;20038;-42
2022/08/30 13:08:26;;;;;;;3.53;1.40;;;22.40;99.90;;;;;;5095617;27;20058;-40